createdAt,value
2023-05-08T00:00:23.099Z,10.25
2023-05-08T00:01:25.901Z,9.82
2023-05-08T00:02:27.842Z,10.60
2023-05-08T00:03:31.140Z,11.63
2023-05-08T00:04:33.127Z,11.98
2023-05-08T00:05:36.048Z,13.13
2023-05-08T00:06:37.834Z,9.55
2023-05-08T00:07:41.260Z,11.38
2023-05-08T00:08:44.412Z,10.23
2023-05-08T00:09:47.193Z,9.57
2023-05-08T00:10:49.575Z,10.00
2023-05-08T00:11:52.563Z,9.55
2023-05-08T00:12:54.501Z,10.18
2023-05-08T00:13:57.361Z,16.92
2023-05-08T00:14:59.181Z,9.60
2023-05-08T00:16:01.990Z,10.05
2023-05-08T00:17:03.897Z,11.13
2023-05-08T00:18:06.831Z,9.82
2023-05-08T00:19:08.690Z,10.07
2023-05-08T00:20:12.906Z,10.10
2023-05-08T00:21:14.980Z,9.82
2023-05-08T00:22:17.761Z,10.18
2023-05-08T00:23:21.965Z,10.93
2023-05-08T00:24:26.344Z,12.15
2023-05-08T00:25:28.245Z,10.52
2023-05-08T00:26:31.028Z,10.48
2023-05-08T00:27:33.260Z,11.68
2023-05-08T00:28:36.008Z,9.65
2023-05-08T00:29:40.142Z,9.60
2023-05-08T00:30:42.892Z,10.02
2023-05-08T00:31:44.796Z,9.98
2023-05-08T00:32:48.216Z,10.90
2023-05-08T00:33:50.260Z,9.85
2023-05-08T00:34:53.063Z,10.55
2023-05-08T00:35:59.485Z,10.85
2023-05-08T00:37:02.937Z,9.63
2023-05-08T00:38:04.772Z,13.85
2023-05-08T00:39:07.860Z,9.90
2023-05-08T00:40:12.091Z,11.38
2023-05-08T00:41:16.224Z,9.82
2023-05-08T00:42:18.087Z,11.40
2023-05-08T00:43:25.626Z,9.93
2023-05-08T00:44:27.577Z,10.15
2023-05-08T00:45:35.886Z,9.80
2023-05-08T00:46:38.861Z,10.52
2023-05-08T00:47:41.191Z,12.95
2023-05-08T00:48:44.952Z,9.85
2023-05-08T00:49:46.824Z,10.70
2023-05-08T00:50:50.426Z,9.77
2023-05-08T00:51:55.827Z,10.30
2023-05-08T00:52:59.654Z,9.57
2023-05-08T00:54:01.596Z,10.27
2023-05-08T00:55:06.113Z,10.20
2023-05-08T00:56:11.007Z,9.57
2023-05-08T00:57:16.353Z,11.05
2023-05-08T00:58:18.879Z,9.68
2023-05-08T00:59:22.200Z,10.15
2023-05-08T01:00:24.707Z,11.10
2023-05-08T01:01:27.666Z,10.43
2023-05-08T01:02:31.257Z,10.30
2023-05-08T01:03:37.026Z,9.63
2023-05-08T01:04:40.622Z,9.85
2023-05-08T01:05:44.552Z,10.40
2023-05-08T01:06:46.354Z,9.80
2023-05-08T01:07:49.262Z,9.60
2023-05-08T01:08:51.117Z,9.80
2023-05-08T01:09:54.628Z,10.32
2023-05-08T01:11:06.339Z,10.15
2023-05-08T01:12:17.119Z,10.07
2023-05-08T01:13:32.713Z,9.93
2023-05-08T01:14:45.839Z,9.60
2023-05-08T01:15:54.471Z,9.82
2023-05-08T01:17:03.979Z,9.88
2023-05-08T01:18:13.290Z,9.98
2023-05-08T01:19:53.919Z,12.63
2023-05-08T01:21:03.209Z,10.55
2023-05-08T01:22:16.958Z,10.52
2023-05-08T01:23:59.446Z,9.13
2023-05-08T01:25:18.164Z,12.07
2023-05-08T01:26:43.143Z,11.50
2023-05-08T01:28:14.478Z,10.30
2023-05-08T01:29:48.846Z,10.32
2023-05-08T01:31:08.111Z,10.70
2023-05-08T01:32:16.712Z,10.75
2023-05-08T01:33:24.884Z,9.70
2023-05-08T01:34:33.391Z,9.75
2023-05-08T01:35:52.293Z,9.48
2023-05-08T01:37:00.611Z,10.38
2023-05-08T01:38:07.591Z,13.68
2023-05-08T01:39:18.690Z,12.65
2023-05-08T01:40:28.859Z,9.82
2023-05-08T01:41:35.515Z,10.07
2023-05-08T01:42:47.627Z,9.52
2023-05-08T01:43:56.136Z,10.52
2023-05-08T01:45:02.960Z,10.10
2023-05-08T01:46:10.915Z,11.02
2023-05-08T01:47:17.026Z,10.38
2023-05-08T01:48:23.552Z,11.05
2023-05-08T01:49:28.307Z,9.65
2023-05-08T01:50:36.563Z,11.57
2023-05-08T01:51:43.748Z,9.55
2023-05-08T01:52:50.919Z,10.48
2023-05-08T01:53:57.883Z,10.77
2023-05-08T01:55:04.610Z,9.93
2023-05-08T01:56:11.843Z,9.57
2023-05-08T01:57:17.997Z,10.52
2023-05-08T01:58:21.839Z,11.93
2023-05-08T01:59:28.178Z,10.50
2023-05-08T02:00:31.267Z,10.40
2023-05-08T02:01:35.830Z,11.25
2023-05-08T02:02:39.906Z,14.65
2023-05-08T02:03:44.228Z,11.50
2023-05-08T02:04:48.405Z,10.82
2023-05-08T02:05:53.617Z,10.07
2023-05-08T02:06:56.926Z,9.68
2023-05-08T02:08:00.782Z,13.05
2023-05-08T02:09:02.921Z,10.25
2023-05-08T02:10:07.263Z,10.20
2023-05-08T02:11:12.400Z,10.48
2023-05-08T02:12:17.276Z,10.20
2023-05-08T02:13:21.343Z,13.98
2023-05-08T02:14:26.284Z,10.15
2023-05-08T02:15:30.612Z,10.43
2023-05-08T02:16:35.328Z,10.65
2023-05-08T02:17:41.540Z,10.52
2023-05-08T02:18:46.994Z,11.55
2023-05-08T02:19:52.122Z,10.15
2023-05-08T02:20:56.462Z,12.32
2023-05-08T02:22:00.576Z,10.23
2023-05-08T02:23:03.006Z,10.70
2023-05-08T02:24:07.041Z,10.32
2023-05-08T02:25:14.359Z,11.40
2023-05-08T02:26:17.962Z,11.05
2023-05-08T02:27:22.031Z,10.90
2023-05-08T02:28:25.897Z,11.98
2023-05-08T02:29:28.782Z,10.73
2023-05-08T02:30:32.080Z,12.30
2023-05-08T02:31:35.756Z,9.95
2023-05-08T02:32:39.823Z,10.07
2023-05-08T02:33:46.002Z,10.45
2023-05-08T02:35:01.938Z,12.60
2023-05-08T02:36:06.432Z,11.15
2023-05-08T02:37:10.368Z,9.77
2023-05-08T02:38:13.370Z,10.55
2023-05-08T02:39:15.549Z,11.05
2023-05-08T02:40:19.655Z,10.35
2023-05-08T02:41:23.090Z,10.68
2023-05-08T02:42:26.164Z,10.38
2023-05-08T02:43:28.409Z,11.38
2023-05-08T02:44:31.593Z,10.27
2023-05-08T02:45:39.872Z,10.18
2023-05-08T02:46:48.922Z,11.63
2023-05-08T02:48:00.090Z,11.80
2023-05-08T02:49:08.138Z,11.35
2023-05-08T02:50:16.817Z,12.35
2023-05-08T02:51:24.654Z,10.48
2023-05-08T02:52:29.693Z,9.93
2023-05-08T02:53:36.826Z,11.13
2023-05-08T02:54:44.244Z,10.75
2023-05-08T02:55:50.460Z,12.05
2023-05-08T02:56:58.147Z,10.85
2023-05-08T02:58:12.541Z,11.23
2023-05-08T02:59:20.268Z,12.15
2023-05-08T03:00:28.620Z,10.88
2023-05-08T03:01:37.092Z,10.98
2023-05-08T03:02:41.995Z,11.15
2023-05-08T03:03:46.614Z,11.68
2023-05-08T03:04:56.166Z,11.88
2023-05-08T03:06:02.742Z,13.18
2023-05-08T03:07:06.541Z,12.23
2023-05-08T03:08:14.040Z,10.32
2023-05-08T03:09:21.248Z,11.77
2023-05-08T03:10:28.314Z,10.95
2023-05-08T03:11:43.496Z,13.23
2023-05-08T03:12:49.449Z,11.50
2023-05-08T03:13:58.779Z,12.48
2023-05-08T03:15:05.322Z,12.85
2023-05-08T03:16:11.589Z,11.65
2023-05-08T03:17:18.034Z,11.88
2023-05-08T03:18:23.123Z,11.80
2023-05-08T03:19:29.387Z,11.23
2023-05-08T03:20:37.315Z,10.30
2023-05-08T03:21:44.062Z,9.93
2023-05-08T03:22:48.239Z,11.43
2023-05-08T03:23:54.045Z,12.20
2023-05-08T03:24:58.316Z,12.18
2023-05-08T03:26:01.993Z,11.50
2023-05-08T03:27:06.191Z,10.48
2023-05-08T03:28:09.281Z,11.82
2023-05-08T03:29:13.478Z,10.77
2023-05-08T03:30:17.707Z,10.95
2023-05-08T03:31:21.432Z,12.63
2023-05-08T03:32:27.147Z,11.90
2023-05-08T03:33:30.689Z,11.27
2023-05-08T03:34:34.956Z,13.45
2023-05-08T03:35:39.778Z,11.20
2023-05-08T03:36:43.023Z,10.88
2023-05-08T03:37:45.025Z,13.68
2023-05-08T03:38:48.192Z,12.32
2023-05-08T03:39:51.543Z,10.80
2023-05-08T03:40:54.509Z,10.15
2023-05-08T03:41:56.978Z,12.43
2023-05-08T03:43:02.745Z,11.40
2023-05-08T03:44:07.923Z,11.00
2023-05-08T03:45:11.301Z,12.27
2023-05-08T03:46:14.855Z,10.52
2023-05-08T03:47:17.983Z,11.95
2023-05-08T03:48:22.571Z,16.05
2023-05-08T03:49:26.321Z,11.13
2023-05-08T03:50:29.520Z,11.65
2023-05-08T03:51:33.257Z,11.40
2023-05-08T03:52:36.119Z,9.68
2023-05-08T03:53:38.082Z,11.02
2023-05-08T03:54:40.985Z,11.35
2023-05-08T03:55:42.925Z,13.05
2023-05-08T03:56:46.058Z,12.50
2023-05-08T03:57:57.157Z,13.13
2023-05-08T03:59:08.905Z,11.52
2023-05-08T04:00:19.192Z,11.73
2023-05-08T04:01:25.943Z,8.10
2023-05-08T04:02:32.867Z,17.63
2023-05-08T04:03:51.163Z,11.75
2023-05-08T04:04:59.376Z,11.95
2023-05-08T04:06:08.435Z,13.25
2023-05-08T04:07:15.847Z,10.45
2023-05-08T04:08:23.507Z,10.75
2023-05-08T04:09:31.777Z,10.75
2023-05-08T04:10:39.746Z,10.65
2023-05-08T04:11:47.384Z,12.48
2023-05-08T04:12:58.195Z,11.82
2023-05-08T04:15:10.073Z,10.70
2023-05-08T04:16:19.872Z,11.88
2023-05-08T04:17:35.679Z,11.35
2023-05-08T04:18:42.866Z,11.60
2023-05-08T04:19:49.409Z,10.80
2023-05-08T04:20:55.924Z,12.52
2023-05-08T04:22:06.214Z,9.75
2023-05-08T04:23:12.678Z,14.45
2023-05-08T04:24:18.000Z,11.13
2023-05-08T04:25:20.261Z,10.95
2023-05-08T04:26:23.134Z,13.45
2023-05-08T04:27:26.833Z,11.65
2023-05-08T04:28:29.234Z,11.95
2023-05-08T04:29:33.692Z,11.18
2023-05-08T04:30:35.788Z,10.95
2023-05-08T04:31:40.755Z,10.85
2023-05-08T04:32:45.546Z,11.35
2023-05-08T04:33:50.619Z,11.35
2023-05-08T04:34:52.828Z,12.73
2023-05-08T04:35:55.846Z,9.65
2023-05-08T04:36:57.826Z,10.52
2023-05-08T04:38:00.995Z,10.70
2023-05-08T04:39:04.238Z,11.20
2023-05-08T04:40:08.642Z,11.93
2023-05-08T04:41:11.056Z,12.93
2023-05-08T04:42:13.950Z,12.25
2023-05-08T04:43:15.973Z,11.18
2023-05-08T04:44:18.924Z,16.05
2023-05-08T04:45:21.138Z,12.77
2023-05-08T04:46:24.700Z,11.02
2023-05-08T04:47:26.768Z,12.05
2023-05-08T04:48:31.381Z,11.75
2023-05-08T04:49:33.229Z,11.60
2023-05-08T04:50:36.058Z,10.32
2023-05-08T04:51:37.831Z,11.73
2023-05-08T04:52:40.683Z,13.40
2023-05-08T04:53:42.528Z,11.15
2023-05-08T04:54:46.748Z,11.20
2023-05-08T04:55:48.600Z,10.30
2023-05-08T04:56:51.467Z,13.80
2023-05-08T04:57:53.350Z,10.93
2023-05-08T04:58:56.234Z,9.95
2023-05-08T04:59:58.108Z,11.02
2023-05-08T05:01:03.196Z,10.23
2023-05-08T05:02:08.049Z,11.30
2023-05-08T05:03:11.065Z,11.52
2023-05-08T05:04:13.015Z,12.00
2023-05-08T05:05:16.004Z,11.07
2023-05-08T05:06:17.923Z,10.32
2023-05-08T05:07:20.908Z,11.82
2023-05-08T05:08:22.754Z,12.73
2023-05-08T05:09:25.974Z,10.13
2023-05-08T05:10:29.535Z,10.93
2023-05-08T05:11:32.316Z,10.45
2023-05-08T05:12:34.218Z,11.60
2023-05-08T05:13:36.989Z,10.38
2023-05-08T05:14:38.801Z,10.02
2023-05-08T05:15:43.276Z,13.27
2023-05-08T05:16:45.276Z,11.57
2023-05-08T05:17:48.214Z,10.10
2023-05-08T05:18:51.996Z,11.63
2023-05-08T05:19:54.770Z,12.98
2023-05-08T05:20:58.265Z,11.25
2023-05-08T05:22:01.053Z,9.95
2023-05-08T05:23:03.090Z,10.18
2023-05-08T05:24:07.127Z,11.70
2023-05-08T05:25:09.799Z,9.82
2023-05-08T05:26:14.056Z,11.15
2023-05-08T05:27:15.922Z,10.35
2023-05-08T05:28:18.745Z,12.70
2023-05-08T05:29:20.579Z,11.20
2023-05-08T05:30:23.548Z,13.20
2023-05-08T05:31:25.836Z,11.13
2023-05-08T05:32:28.738Z,11.88
2023-05-08T05:33:30.664Z,11.90
2023-05-08T05:34:33.602Z,14.80
2023-05-08T05:35:35.549Z,11.93
2023-05-08T05:36:38.459Z,12.68
2023-05-08T05:37:40.592Z,12.85
2023-05-08T05:38:43.698Z,12.52
2023-05-08T05:39:45.937Z,12.73
2023-05-08T05:40:49.007Z,11.68
2023-05-08T05:41:52.282Z,12.65
2023-05-08T05:42:55.156Z,12.90
2023-05-08T05:43:56.961Z,14.52
2023-05-08T05:44:59.734Z,11.77
2023-05-08T05:46:04.413Z,12.40
2023-05-08T05:47:10.107Z,12.20
2023-05-08T05:48:12.265Z,13.02
2023-05-08T05:49:15.109Z,12.68
2023-05-08T05:50:18.146Z,11.82
2023-05-08T05:51:20.987Z,11.68
2023-05-08T05:52:22.801Z,14.25
2023-05-08T05:53:25.718Z,11.90
2023-05-08T05:54:28.534Z,14.10
2023-05-08T05:55:31.651Z,13.20
2023-05-08T05:56:33.583Z,15.23
2023-05-08T05:57:37.970Z,13.10
2023-05-08T05:58:44.919Z,14.88
2023-05-08T05:59:47.814Z,14.88
2023-05-08T06:00:49.625Z,13.63
2023-05-08T06:01:52.737Z,14.52
2023-05-08T06:02:55.164Z,14.20
2023-05-08T06:03:58.224Z,15.18
2023-05-08T06:05:00.223Z,14.02
2023-05-08T06:06:03.025Z,12.63
2023-05-08T06:07:04.908Z,14.95
2023-05-08T06:08:08.464Z,12.43
2023-05-08T06:09:10.323Z,14.18
2023-05-08T06:10:13.310Z,12.77
2023-05-08T06:11:15.483Z,12.45
2023-05-08T06:12:18.775Z,12.85
2023-05-08T06:13:22.027Z,14.13
2023-05-08T06:14:25.140Z,13.48
2023-05-08T06:15:27.013Z,12.63
2023-05-08T06:16:30.492Z,12.38
2023-05-08T06:17:32.415Z,12.38
2023-05-08T06:18:35.540Z,13.77
2023-05-08T06:19:37.456Z,21.63
2023-05-08T06:20:40.290Z,13.30
2023-05-08T06:21:42.238Z,11.45
2023-05-08T06:22:45.051Z,12.90
2023-05-08T06:23:46.891Z,12.30
2023-05-08T06:24:49.936Z,12.90
2023-05-08T06:25:51.793Z,12.60
2023-05-08T06:26:54.761Z,16.33
2023-05-08T06:27:56.944Z,12.73
2023-05-08T06:29:01.371Z,13.43
2023-05-08T06:30:04.461Z,14.93
2023-05-08T06:31:07.305Z,14.07
2023-05-08T06:32:09.208Z,14.88
2023-05-08T06:33:12.512Z,13.48
2023-05-08T06:34:14.366Z,13.82
2023-05-08T06:35:18.498Z,13.48
2023-05-08T06:36:20.416Z,12.32
2023-05-08T06:37:23.399Z,12.63
2023-05-08T06:38:25.299Z,12.55
2023-05-08T06:39:28.093Z,12.52
2023-05-08T06:40:30.889Z,14.82
2023-05-08T06:41:32.740Z,11.60
2023-05-08T06:42:35.539Z,13.32
2023-05-08T06:43:37.360Z,11.23
2023-05-08T06:44:41.691Z,14.77
2023-05-08T06:45:44.876Z,13.23
2023-05-08T06:46:46.773Z,16.65
2023-05-08T06:47:49.909Z,15.32
2023-05-08T06:48:51.764Z,14.65
2023-05-08T06:49:55.111Z,12.63
2023-05-08T06:50:56.925Z,12.98
2023-05-08T06:51:59.845Z,11.07
2023-05-08T06:53:02.680Z,12.52
2023-05-08T06:54:08.148Z,13.52
2023-05-08T06:55:10.108Z,14.23
2023-05-08T06:56:12.918Z,11.70
2023-05-08T06:57:16.143Z,13.60
2023-05-08T06:58:19.098Z,14.40
2023-05-08T06:59:21.205Z,15.20
2023-05-08T07:00:26.107Z,15.35
2023-05-08T07:01:27.984Z,14.20
2023-05-08T07:02:30.886Z,13.90
2023-05-08T07:03:33.726Z,14.20
2023-05-08T07:04:35.651Z,13.32
2023-05-08T07:05:38.726Z,12.32
2023-05-08T07:06:40.721Z,13.43
2023-05-08T07:07:43.807Z,13.20
2023-05-08T07:08:45.803Z,13.20
2023-05-08T07:09:48.866Z,13.75
2023-05-08T07:10:50.919Z,12.98
2023-05-08T07:11:53.898Z,12.82
2023-05-08T07:12:56.892Z,13.15
2023-05-08T07:14:00.251Z,14.85
2023-05-08T07:15:13.758Z,12.35
2023-05-08T07:16:19.303Z,13.55
2023-05-08T07:17:22.095Z,16.55
2023-05-08T07:18:25.163Z,14.80
2023-05-08T07:19:27.167Z,12.77
2023-05-08T07:20:30.430Z,15.32
2023-05-08T07:21:32.474Z,13.50
2023-05-08T07:22:35.776Z,12.65
2023-05-08T07:23:38.936Z,15.10
2023-05-08T07:24:41.596Z,14.38
2023-05-08T07:25:44.718Z,12.75
2023-05-08T07:26:47.748Z,13.98
2023-05-08T07:27:49.885Z,13.23
2023-05-08T07:28:54.319Z,13.13
2023-05-08T07:29:57.646Z,14.88
2023-05-08T07:31:00.733Z,14.38
2023-05-08T07:32:07.512Z,11.27
2023-05-08T07:33:10.774Z,12.45
2023-05-08T07:34:13.050Z,13.75
2023-05-08T07:35:16.481Z,16.23
2023-05-08T07:36:19.779Z,13.32
2023-05-08T07:37:23.768Z,15.18
2023-05-08T07:38:26.818Z,14.40
2023-05-08T07:39:28.794Z,13.43
2023-05-08T07:40:31.977Z,15.15
2023-05-08T07:41:36.125Z,12.50
2023-05-08T07:42:39.746Z,13.82
2023-05-08T07:43:43.632Z,15.07
2023-05-08T07:44:54.527Z,12.13
2023-05-08T07:45:58.643Z,15.52
2023-05-08T07:47:00.845Z,15.25
2023-05-08T07:48:05.681Z,14.18
2023-05-08T07:49:09.056Z,17.67
2023-05-08T07:50:11.557Z,12.40
2023-05-08T07:51:14.820Z,17.63
2023-05-08T07:52:16.906Z,12.02
2023-05-08T07:53:19.777Z,14.93
2023-05-08T07:54:25.121Z,13.77
2023-05-08T07:55:28.028Z,11.05
2023-05-08T07:56:30.102Z,14.30
2023-05-08T07:57:38.040Z,10.90
2023-05-08T07:58:40.469Z,14.93
2023-05-08T07:59:43.467Z,11.20
2023-05-08T08:00:45.689Z,12.30
2023-05-08T08:01:48.752Z,14.57
2023-05-08T08:02:50.908Z,10.68
2023-05-08T08:03:55.542Z,12.18
2023-05-08T08:04:57.725Z,10.27
2023-05-08T08:06:00.712Z,15.00
2023-05-08T08:07:03.753Z,10.98
2023-05-08T08:08:05.909Z,10.77
2023-05-08T08:09:09.008Z,10.07
2023-05-08T08:10:11.155Z,16.20
2023-05-08T08:11:14.481Z,14.43
2023-05-08T08:12:19.205Z,10.48
2023-05-08T08:13:22.397Z,11.98
2023-05-08T08:14:27.816Z,10.48
2023-05-08T08:15:30.933Z,10.13
2023-05-08T08:16:34.992Z,11.82
2023-05-08T08:17:38.325Z,13.43
2023-05-08T08:18:41.556Z,11.65
2023-05-08T08:19:44.927Z,13.40
2023-05-08T08:20:48.014Z,14.60
2023-05-08T08:21:50.110Z,11.50
2023-05-08T08:22:53.543Z,13.43
2023-05-08T08:23:56.856Z,17.85
2023-05-08T08:24:59.687Z,11.05
2023-05-08T08:26:02.818Z,12.70
2023-05-08T08:27:04.816Z,10.05
2023-05-08T08:28:08.628Z,12.82
2023-05-08T08:29:10.761Z,11.32
2023-05-08T08:30:18.024Z,14.70
2023-05-08T08:31:21.508Z,13.82
2023-05-08T08:32:25.306Z,11.18
2023-05-08T08:33:27.626Z,15.35
2023-05-08T08:34:30.895Z,11.85
2023-05-08T08:35:36.662Z,9.82
2023-05-08T08:36:39.278Z,10.55
2023-05-08T08:37:42.479Z,12.50
2023-05-08T08:38:45.790Z,12.43
2023-05-08T08:39:48.377Z,14.27
2023-05-08T08:40:51.722Z,12.40
2023-05-08T08:41:53.762Z,9.38
2023-05-08T08:42:56.691Z,10.73
2023-05-08T08:43:58.684Z,9.52
2023-05-08T08:45:02.619Z,13.52
2023-05-08T08:46:12.596Z,11.27
2023-05-08T08:47:16.842Z,11.75
2023-05-08T08:48:23.127Z,10.65
2023-05-08T08:49:29.881Z,10.20
2023-05-08T08:50:34.078Z,9.40
2023-05-08T08:51:46.001Z,12.07
2023-05-08T08:52:56.827Z,12.05
2023-05-08T08:54:05.896Z,12.45
2023-05-08T08:55:12.830Z,9.57
2023-05-08T08:56:16.970Z,10.90
2023-05-08T08:57:21.140Z,12.30
2023-05-08T08:58:32.789Z,12.77
2023-05-08T08:59:39.375Z,15.13
2023-05-08T09:00:43.061Z,11.73
2023-05-08T09:01:49.494Z,13.07
2023-05-08T09:02:52.267Z,10.38
2023-05-08T09:03:55.680Z,9.52
2023-05-08T09:04:58.185Z,13.00
2023-05-08T09:06:02.256Z,10.70
2023-05-08T09:07:07.231Z,11.07
2023-05-08T09:08:11.701Z,11.07
2023-05-08T09:09:16.527Z,9.48
2023-05-08T09:10:20.215Z,12.95
2023-05-08T09:11:25.207Z,11.60
2023-05-08T09:12:28.349Z,10.00
2023-05-08T09:13:31.622Z,11.18
2023-05-08T09:14:34.121Z,8.90
2023-05-08T09:15:38.363Z,11.35
2023-05-08T09:16:45.254Z,8.75
2023-05-08T09:17:50.617Z,13.30
2023-05-08T09:18:56.775Z,8.73
2023-05-08T09:19:59.073Z,10.00
2023-05-08T09:21:02.673Z,9.48
2023-05-08T09:22:09.305Z,14.23
2023-05-08T09:23:14.320Z,8.77
2023-05-08T09:24:16.349Z,10.55
2023-05-08T09:25:19.389Z,8.80
2023-05-08T09:26:28.773Z,8.55
2023-05-08T09:27:36.788Z,9.55
2023-05-08T09:28:39.737Z,9.93
2023-05-08T09:30:07.046Z,9.32
2023-05-08T09:31:13.224Z,9.60
2023-05-08T09:32:18.875Z,9.27
2023-05-08T09:33:23.416Z,9.65
2023-05-08T09:34:30.223Z,10.10
2023-05-08T09:35:40.701Z,15.80
2023-05-08T09:36:43.062Z,7.50
2023-05-08T09:37:50.380Z,8.25
2023-05-08T09:39:01.004Z,10.10
2023-05-08T09:40:19.193Z,10.15
2023-05-08T09:41:21.907Z,8.70
2023-05-08T09:42:25.348Z,6.82
2023-05-08T09:43:36.119Z,7.80
2023-05-08T09:45:53.414Z,9.32
2023-05-08T09:47:13.934Z,11.68
2023-05-08T09:48:16.644Z,8.98
2023-05-08T09:49:22.429Z,11.20
2023-05-08T09:50:31.636Z,7.65
2023-05-08T09:51:37.139Z,7.32
2023-05-08T09:52:47.679Z,7.53
2023-05-08T09:53:54.706Z,7.97
2023-05-08T09:55:00.819Z,7.43
2023-05-08T09:56:03.304Z,8.32
2023-05-08T09:57:13.791Z,9.18
2023-05-08T09:58:17.693Z,9.65
2023-05-08T09:59:24.351Z,10.40
2023-05-08T10:00:39.988Z,8.43
2023-05-08T10:01:44.176Z,7.05
2023-05-08T10:02:58.178Z,7.80
2023-05-08T10:04:01.986Z,8.02
2023-05-08T10:05:06.547Z,7.15
2023-05-08T10:06:16.324Z,7.95
2023-05-08T10:07:28.770Z,7.13
2023-05-08T10:08:31.715Z,6.90
2023-05-08T10:09:49.903Z,8.60
2023-05-08T10:10:55.494Z,6.75
2023-05-08T10:12:03.291Z,8.32
2023-05-08T10:13:08.014Z,7.22
2023-05-08T10:14:12.025Z,7.63
2023-05-08T10:15:17.749Z,5.63
2023-05-08T10:16:23.948Z,8.40
2023-05-08T10:17:29.748Z,5.88
2023-05-08T10:18:37.541Z,10.70
2023-05-08T10:19:47.028Z,5.53
2023-05-08T10:20:56.529Z,10.60
2023-05-08T10:22:06.605Z,5.80
2023-05-08T10:23:19.167Z,5.82
2023-05-08T10:24:28.860Z,8.60
2023-05-08T10:25:34.782Z,6.70
2023-05-08T10:27:02.719Z,4.88
2023-05-08T10:28:17.541Z,4.82
2023-05-08T10:29:30.766Z,4.97
2023-05-08T10:30:44.609Z,5.90
2023-05-08T10:32:00.199Z,4.90
2023-05-08T10:33:28.010Z,6.45
2023-05-08T10:34:43.915Z,7.22
2023-05-08T10:35:54.646Z,6.88
2023-05-08T10:37:04.354Z,5.50
2023-05-08T10:38:13.362Z,8.02
2023-05-08T10:39:19.399Z,5.30
2023-05-08T10:40:27.126Z,4.40
2023-05-08T10:41:37.682Z,5.28
2023-05-08T10:42:42.550Z,5.03
2023-05-08T10:43:44.989Z,5.75
2023-05-08T10:44:51.096Z,4.57
2023-05-08T10:45:55.162Z,6.65
2023-05-08T10:47:07.074Z,7.45
2023-05-08T10:48:21.462Z,4.80
2023-05-08T10:49:37.722Z,7.78
2023-05-08T10:51:01.945Z,5.43
2023-05-08T10:52:27.130Z,4.35
2023-05-08T10:53:40.165Z,4.43
2023-05-08T10:55:37.370Z,17.00
2023-05-08T10:56:43.597Z,6.70
2023-05-08T10:58:27.713Z,6.32
2023-05-08T10:59:40.810Z,4.38
2023-05-08T11:01:16.010Z,4.18
2023-05-08T11:02:36.995Z,4.05
2023-05-08T11:03:46.208Z,5.03
2023-05-08T11:04:54.968Z,3.67
2023-05-08T11:06:02.869Z,3.47
2023-05-08T11:07:08.722Z,3.90
2023-05-08T11:08:17.948Z,4.85
2023-05-08T11:09:25.350Z,4.07
2023-05-08T11:10:33.688Z,4.28
2023-05-08T11:11:55.535Z,4.32
2023-05-08T11:14:14.169Z,3.50
2023-05-08T11:15:41.728Z,4.15
2023-05-08T11:17:14.203Z,5.63
2023-05-08T11:18:18.094Z,4.22
2023-05-08T11:19:28.106Z,3.78
2023-05-08T11:20:45.989Z,5.35
2023-05-08T11:22:16.138Z,5.40
2023-05-08T11:23:37.394Z,5.68
2023-05-08T11:24:41.738Z,4.55
2023-05-08T11:25:55.234Z,4.03
2023-05-08T11:27:02.004Z,4.10
2023-05-08T11:28:19.862Z,3.42
2023-05-08T11:29:26.660Z,9.57
2023-05-08T11:30:40.044Z,4.68
2023-05-08T11:31:58.872Z,4.03
2023-05-08T11:33:21.668Z,3.03
2023-05-08T11:34:48.725Z,3.35
2023-05-08T11:36:07.760Z,3.97
2023-05-08T11:37:26.957Z,3.22
2023-05-08T11:38:33.993Z,7.90
2023-05-08T11:39:39.712Z,4.35
2023-05-08T11:40:54.720Z,4.32
2023-05-08T11:42:37.870Z,4.32
2023-05-08T11:44:25.479Z,4.75
2023-05-08T11:45:29.609Z,7.35
2023-05-08T11:46:43.455Z,7.20
2023-05-08T11:47:51.674Z,3.90
2023-05-08T11:49:04.011Z,7.03
2023-05-08T11:50:18.250Z,3.65
2023-05-08T11:51:35.147Z,3.08
2023-05-08T11:52:49.494Z,3.40
2023-05-08T11:53:55.581Z,4.85
2023-05-08T11:55:04.766Z,3.88
2023-05-08T11:56:10.490Z,5.00
2023-05-08T11:57:27.927Z,3.15
2023-05-08T11:58:38.533Z,2.85
2023-05-08T11:59:43.643Z,2.88
2023-05-08T12:00:47.144Z,3.63
2023-05-08T12:03:02.911Z,2.40
2023-05-08T12:04:11.036Z,2.72
2023-05-08T12:05:30.845Z,2.17
2023-05-08T12:06:45.105Z,2.70
2023-05-08T12:07:56.140Z,2.33
2023-05-08T12:09:01.380Z,5.78
2023-05-08T12:10:07.688Z,5.82
2023-05-08T12:11:11.585Z,4.65
2023-05-08T12:12:22.557Z,6.78
2023-05-08T12:13:37.268Z,3.95
2023-05-08T12:14:41.155Z,4.45
2023-05-08T12:15:46.647Z,4.78
2023-05-08T12:16:52.428Z,3.08
2023-05-08T12:18:05.859Z,2.35
2023-05-08T12:19:22.789Z,3.15
2023-05-08T12:20:25.915Z,5.00
2023-05-08T12:21:40.744Z,3.75
2023-05-08T12:22:58.004Z,6.95
2023-05-08T12:25:19.086Z,4.18
2023-05-08T12:26:22.821Z,4.00
2023-05-08T12:27:31.474Z,3.65
2023-05-08T12:28:38.342Z,4.18
2023-05-08T12:29:49.816Z,4.55
2023-05-08T12:31:04.336Z,5.70
2023-05-08T12:32:09.262Z,6.32
2023-05-08T12:33:28.783Z,5.03
2023-05-08T12:34:34.337Z,4.90
2023-05-08T12:35:39.795Z,5.82
2023-05-08T12:36:43.154Z,4.60
2023-05-08T12:37:49.049Z,2.83
2023-05-08T12:39:02.878Z,8.27
2023-05-08T12:40:46.704Z,4.18
2023-05-08T12:42:29.989Z,3.05
2023-05-08T12:43:42.198Z,2.90
2023-05-08T12:44:56.507Z,4.03
2023-05-08T12:46:01.677Z,5.70
2023-05-08T12:47:09.836Z,15.30
2023-05-08T12:48:18.562Z,6.78
2023-05-08T12:49:29.482Z,2.92
2023-05-08T12:50:44.900Z,5.15
2023-05-08T12:51:48.016Z,4.40
2023-05-08T12:52:54.768Z,6.20
2023-05-08T12:54:08.507Z,5.57
2023-05-08T12:55:33.742Z,2.85
2023-05-08T12:56:47.615Z,4.75
2023-05-08T12:58:03.308Z,3.05
2023-05-08T12:59:10.346Z,4.32
2023-05-08T13:00:21.629Z,2.63
2023-05-08T13:01:30.418Z,2.88
2023-05-08T13:02:49.290Z,2.65
2023-05-08T13:04:02.265Z,2.42
2023-05-08T13:05:13.391Z,4.03
2023-05-08T13:06:29.445Z,3.83
2023-05-08T13:07:32.347Z,3.05
2023-05-08T13:08:51.247Z,4.18
2023-05-08T13:10:20.069Z,3.85
2023-05-08T13:11:33.589Z,1.85
2023-05-08T13:12:38.789Z,2.60
2023-05-08T13:13:51.101Z,3.67
2023-05-08T13:15:16.654Z,3.08
2023-05-08T13:16:23.354Z,4.10
2023-05-08T13:17:37.498Z,3.45
2023-05-08T13:18:43.180Z,3.15
2023-05-08T13:19:48.090Z,5.55
2023-05-08T13:21:06.231Z,7.93
2023-05-08T13:22:10.930Z,4.80
2023-05-08T13:23:15.553Z,3.17
2023-05-08T13:24:17.863Z,5.13
2023-05-08T13:25:21.345Z,2.33
2023-05-08T13:26:26.212Z,9.05
2023-05-08T13:27:30.899Z,2.00
2023-05-08T13:28:33.856Z,2.22
2023-05-08T13:29:44.498Z,4.60
2023-05-08T13:30:55.568Z,3.63
2023-05-08T13:32:00.170Z,4.05
2023-05-08T13:33:04.089Z,2.72
2023-05-08T13:34:07.389Z,3.53
2023-05-08T13:35:10.374Z,4.57
2023-05-08T13:36:14.032Z,1.55
2023-05-08T13:37:16.338Z,2.47
2023-05-08T13:38:19.637Z,1.27
2023-05-08T13:39:22.572Z,5.60
2023-05-08T13:40:26.567Z,4.45
2023-05-08T13:41:31.903Z,3.42
2023-05-08T13:42:38.409Z,2.10
2023-05-08T13:43:42.471Z,1.40
2023-05-08T13:44:47.175Z,2.88
2023-05-08T13:45:53.381Z,3.78
2023-05-08T13:47:00.793Z,2.20
2023-05-08T13:48:07.599Z,2.05
2023-05-08T13:49:13.392Z,2.72
2023-05-08T13:50:18.405Z,2.60
2023-05-08T13:51:22.837Z,2.78
2023-05-08T13:52:34.827Z,2.15
2023-05-08T13:53:49.865Z,1.70
2023-05-08T13:55:19.451Z,1.83
2023-05-08T13:56:23.548Z,3.37
2023-05-08T13:57:27.046Z,3.80
2023-05-08T13:58:38.693Z,2.17
2023-05-08T13:59:43.489Z,2.65
2023-05-08T14:00:53.930Z,2.30
2023-05-08T14:02:03.138Z,1.52
2023-05-08T14:03:12.224Z,5.68
2023-05-08T14:04:21.367Z,2.78
2023-05-08T14:05:35.327Z,1.88
2023-05-08T14:06:40.028Z,1.98
2023-05-08T14:07:46.073Z,1.30
2023-05-08T14:08:50.924Z,2.55
2023-05-08T14:09:57.098Z,1.67
2023-05-08T14:11:10.154Z,4.18
2023-05-08T14:12:24.855Z,1.15
2023-05-08T14:13:31.424Z,3.25
2023-05-08T14:14:45.620Z,2.38
2023-05-08T14:15:50.942Z,3.25
2023-05-08T14:17:01.523Z,1.50
2023-05-08T14:18:14.065Z,2.95
2023-05-08T14:19:26.050Z,2.83
2023-05-08T14:20:39.121Z,1.95
2023-05-08T14:21:42.886Z,1.67
2023-05-08T14:22:49.741Z,2.65
2023-05-08T14:23:52.352Z,4.90
2023-05-08T14:25:07.539Z,1.80
2023-05-08T14:26:11.381Z,5.10
2023-05-08T14:27:17.018Z,4.43
2023-05-08T14:28:20.642Z,4.05
2023-05-08T14:29:32.061Z,1.65
2023-05-08T14:30:48.596Z,2.78
2023-05-08T14:31:53.251Z,2.15
2023-05-08T14:32:58.307Z,4.05
2023-05-08T14:34:16.334Z,3.25
2023-05-08T14:35:21.768Z,4.80
2023-05-08T14:36:27.557Z,1.85